createdAt,value
2017-10-31T00:01:50.154Z,4.93
2017-10-31T00:04:18.257Z,2.80
2017-10-31T00:06:46.342Z,4.33
2017-10-31T00:09:14.458Z,5.40
2017-10-31T00:11:43.211Z,4.30
2017-10-31T00:14:12.078Z,2.90
2017-10-31T00:16:40.938Z,3.30
2017-10-31T00:19:10.304Z,4.83
2017-10-31T00:21:38.412Z,5.83
2017-10-31T00:24:13.175Z,3.97
2017-10-31T00:26:41.258Z,3.63
2017-10-31T00:29:09.364Z,4.00
2017-10-31T00:31:50.791Z,3.17
2017-10-31T00:34:19.712Z,3.00
2017-10-31T00:36:47.798Z,4.43
2017-10-31T00:39:15.899Z,7.07
2017-10-31T00:41:43.986Z,4.17
2017-10-31T00:44:12.098Z,6.27
2017-10-31T00:46:40.186Z,9.67
2017-10-31T00:49:08.273Z,5.63
2017-10-31T00:51:36.363Z,3.87
2017-10-31T00:54:04.878Z,4.97
2017-10-31T00:56:32.974Z,2.33
2017-10-31T00:59:01.922Z,4.60
2017-10-31T01:01:30.038Z,4.73
2017-10-31T01:03:58.131Z,5.13
2017-10-31T01:06:26.255Z,4.93
2017-10-31T01:08:54.333Z,2.73
2017-10-31T01:11:22.449Z,6.53
2017-10-31T01:13:50.534Z,3.80
2017-10-31T01:16:18.742Z,2.90
2017-10-31T01:18:46.824Z,5.47
2017-10-31T01:21:14.916Z,3.10
2017-10-31T01:23:43.011Z,7.37
2017-10-31T01:26:11.890Z,2.80
2017-10-31T01:28:40.746Z,3.10
2017-10-31T01:31:08.842Z,4.93
2017-10-31T01:33:36.974Z,7.00
2017-10-31T01:36:05.830Z,3.70
2017-10-31T01:38:33.909Z,4.17
2017-10-31T01:41:02.773Z,4.13
2017-10-31T01:43:31.665Z,4.43
2017-10-31T01:45:59.801Z,5.70
2017-10-31T01:48:28.651Z,6.07
2017-10-31T01:50:56.738Z,4.03
2017-10-31T01:53:25.598Z,5.80
2017-10-31T01:55:54.465Z,7.17
2017-10-31T01:58:22.566Z,5.93
2017-10-31T02:00:50.645Z,3.93
2017-10-31T02:03:19.237Z,4.97
2017-10-31T02:05:47.317Z,3.93
2017-10-31T02:08:16.177Z,5.63
2017-10-31T02:10:44.267Z,5.10
2017-10-31T02:13:12.384Z,3.83
2017-10-31T02:15:40.466Z,4.70
2017-10-31T02:18:09.334Z,4.20
2017-10-31T02:20:38.193Z,4.93
2017-10-31T02:23:06.335Z,4.00
2017-10-31T02:25:34.440Z,3.40
2017-10-31T02:28:02.539Z,5.20
2017-10-31T02:30:30.636Z,5.47
2017-10-31T02:32:59.483Z,3.40
2017-10-31T02:35:27.577Z,7.20
2017-10-31T02:37:56.435Z,5.70
2017-10-31T02:40:25.318Z,3.40
2017-10-31T02:42:53.402Z,4.70
2017-10-31T02:45:21.499Z,3.83
2017-10-31T02:47:49.598Z,6.27
2017-10-31T02:50:18.455Z,3.13
2017-10-31T02:52:47.293Z,4.23
2017-10-31T02:55:15.394Z,4.30
2017-10-31T02:57:44.294Z,3.63
2017-10-31T03:00:12.398Z,4.90
2017-10-31T03:02:40.530Z,7.10
2017-10-31T03:05:08.631Z,4.47
2017-10-31T03:07:37.490Z,3.87
2017-10-31T03:10:05.597Z,5.63
2017-10-31T03:12:33.681Z,4.77
2017-10-31T03:15:01.760Z,5.23
2017-10-31T03:17:29.849Z,2.77
2017-10-31T03:19:57.934Z,4.80
2017-10-31T03:22:26.740Z,6.83
2017-10-31T03:24:54.825Z,9.47
2017-10-31T03:27:22.913Z,2.87
2017-10-31T03:29:51.003Z,4.10
2017-10-31T03:32:19.085Z,3.13
2017-10-31T03:34:47.939Z,4.37
2017-10-31T03:37:16.021Z,6.67
2017-10-31T03:39:44.098Z,5.00
2017-10-31T03:42:12.187Z,5.17
2017-10-31T03:44:40.266Z,4.13
2017-10-31T03:47:09.130Z,3.10
2017-10-31T03:49:37.208Z,3.87
2017-10-31T03:52:06.075Z,4.50
2017-10-31T03:54:34.973Z,2.60
2017-10-31T03:57:03.091Z,5.33
2017-10-31T03:59:31.162Z,8.57
2017-10-31T04:02:00.018Z,5.10
2017-10-31T04:04:28.102Z,5.27
2017-10-31T04:06:57.198Z,6.10
2017-10-31T04:09:25.275Z,7.00
2017-10-31T04:11:53.362Z,6.20
2017-10-31T04:14:21.449Z,5.73
2017-10-31T04:16:50.309Z,4.07
2017-10-31T04:19:18.401Z,6.67
2017-10-31T04:21:57.403Z,5.03
2017-10-31T04:24:25.491Z,5.30
2017-10-31T04:26:53.579Z,5.43
2017-10-31T04:29:21.661Z,5.20
2017-10-31T04:31:49.750Z,9.17
2017-10-31T04:34:17.839Z,5.60
2017-10-31T04:36:45.926Z,4.90
2017-10-31T04:39:14.781Z,6.90
2017-10-31T04:41:43.671Z,5.73
2017-10-31T04:44:12.521Z,5.07
2017-10-31T04:46:40.672Z,4.67
2017-10-31T04:49:18.353Z,9.63
2017-10-31T04:51:47.171Z,3.90
2017-10-31T04:54:15.283Z,7.53
2017-10-31T04:56:46.158Z,3.97
2017-10-31T04:59:17.093Z,5.90
2017-10-31T05:01:45.177Z,4.37
2017-10-31T05:04:13.797Z,3.80
2017-10-31T05:06:43.120Z,4.17
2017-10-31T05:09:22.203Z,4.47
2017-10-31T05:11:51.465Z,6.73
2017-10-31T05:14:19.574Z,5.67
2017-10-31T05:16:47.701Z,4.43
2017-10-31T05:19:21.639Z,5.00
2017-10-31T05:21:49.766Z,8.23
2017-10-31T05:24:25.966Z,6.80
2017-10-31T05:26:56.939Z,5.00
2017-10-31T05:29:40.524Z,4.50
2017-10-31T05:32:33.851Z,4.77
2017-10-31T05:35:15.662Z,4.53
2017-10-31T05:40:48.280Z,7.20
2017-10-31T05:43:17.203Z,6.13
2017-10-31T05:48:43.138Z,5.53
2017-10-31T05:51:11.239Z,4.27
2017-10-31T05:53:39.348Z,6.83
2017-10-31T05:56:09.315Z,6.17
2017-10-31T05:58:37.441Z,7.10
2017-10-31T06:01:07.439Z,4.30
2017-10-31T06:03:36.300Z,5.17
2017-10-31T06:06:04.381Z,4.80
2017-10-31T06:08:32.471Z,5.50
2017-10-31T06:11:01.534Z,6.23
2017-10-31T06:13:29.636Z,5.43
2017-10-31T06:15:57.757Z,5.47
2017-10-31T06:18:25.853Z,8.90
2017-10-31T06:21:01.318Z,7.63
2017-10-31T06:23:35.174Z,4.93
2017-10-31T06:26:08.930Z,8.03
2017-10-31T06:28:42.602Z,5.20
2017-10-31T06:31:16.286Z,6.20
2017-10-31T06:34:00.890Z,9.43
2017-10-31T06:36:29.745Z,6.67
2017-10-31T06:38:57.854Z,7.13
2017-10-31T06:41:25.950Z,9.53
2017-10-31T06:43:54.046Z,6.17
2017-10-31T06:46:22.133Z,5.67
2017-10-31T06:48:50.229Z,4.60
2017-10-31T06:51:19.273Z,6.03
2017-10-31T06:53:47.377Z,5.93
2017-10-31T06:56:15.476Z,5.80
2017-10-31T06:58:43.569Z,6.67
2017-10-31T07:01:14.678Z,5.27
2017-10-31T07:03:42.766Z,5.43
2017-10-31T07:06:11.664Z,7.03
2017-10-31T07:08:40.758Z,7.73
2017-10-31T07:11:19.468Z,8.93
2017-10-31T07:13:51.418Z,10.10
2017-10-31T07:16:19.509Z,6.67
2017-10-31T07:18:47.606Z,7.77
2017-10-31T07:21:16.458Z,7.07
2017-10-31T07:23:44.550Z,7.27
2017-10-31T07:26:12.659Z,7.13
2017-10-31T07:28:40.731Z,6.30
2017-10-31T07:31:14.507Z,7.43
2017-10-31T07:33:42.593Z,5.40
2017-10-31T07:36:10.681Z,7.93
2017-10-31T07:38:38.801Z,6.33
2017-10-31T07:41:10.272Z,5.47
2017-10-31T07:43:38.364Z,6.43
2017-10-31T07:46:06.455Z,6.40
2017-10-31T07:48:34.550Z,6.37
2017-10-31T07:51:02.638Z,6.57
2017-10-31T07:53:31.496Z,5.80
2017-10-31T07:55:59.585Z,6.57
2017-10-31T08:01:23.432Z,6.13
2017-10-31T08:03:53.378Z,6.97
2017-10-31T08:06:21.474Z,6.60
2017-10-31T08:08:49.576Z,6.60
2017-10-31T08:11:17.697Z,6.10
2017-10-31T08:13:45.799Z,8.40
2017-10-31T08:16:14.671Z,6.13
2017-10-31T08:18:42.881Z,6.13
2017-10-31T08:23:49.646Z,5.17
2017-10-31T08:26:18.517Z,5.30
2017-10-31T08:28:47.114Z,6.23
2017-10-31T08:31:15.243Z,5.17
2017-10-31T08:33:48.483Z,5.17
2017-10-31T08:36:16.560Z,5.27
2017-10-31T08:38:44.686Z,4.67
2017-10-31T08:41:12.800Z,5.00
2017-10-31T08:43:41.917Z,5.33
2017-10-31T08:46:10.050Z,4.50
2017-10-31T08:48:38.159Z,4.30
2017-10-31T08:51:06.290Z,4.23
2017-10-31T08:53:34.411Z,5.27
2017-10-31T08:56:03.267Z,5.47
2017-10-31T08:58:33.177Z,4.30
2017-10-31T09:01:02.040Z,4.37
2017-10-31T09:03:30.938Z,4.37
2017-10-31T09:05:59.801Z,3.80
2017-10-31T09:08:28.694Z,4.40
2017-10-31T09:10:57.765Z,5.17
2017-10-31T09:13:25.889Z,4.87
2017-10-31T09:15:55.970Z,4.47
2017-10-31T09:18:24.082Z,5.67
2017-10-31T09:20:52.311Z,4.70
2017-10-31T09:23:20.427Z,4.70
2017-10-31T09:25:48.548Z,3.53
2017-10-31T09:28:16.674Z,6.10
2017-10-31T09:30:45.646Z,8.27
2017-10-31T09:33:13.750Z,5.37
2017-10-31T09:35:41.846Z,4.63
2017-10-31T09:38:09.951Z,3.63
2017-10-31T09:40:38.806Z,4.73
2017-10-31T09:43:06.920Z,4.10
2017-10-31T09:45:34.994Z,3.27
2017-10-31T09:48:03.182Z,4.17
2017-10-31T09:50:32.162Z,5.43
2017-10-31T09:53:00.329Z,4.77
2017-10-31T09:55:28.557Z,7.60
2017-10-31T09:57:58.684Z,5.77
2017-10-31T10:00:26.777Z,4.93
2017-10-31T10:02:54.929Z,4.83
2017-10-31T10:05:23.053Z,3.33
2017-10-31T10:07:51.985Z,2.87
2017-10-31T10:10:20.932Z,5.50
2017-10-31T10:12:49.076Z,3.10
2017-10-31T10:15:17.245Z,4.60
2017-10-31T10:17:45.654Z,7.63
2017-10-31T10:20:14.026Z,4.97
2017-10-31T10:22:42.789Z,3.20
2017-10-31T10:25:12.097Z,3.90
2017-10-31T10:27:40.762Z,5.83
2017-10-31T10:30:09.367Z,6.87
2017-10-31T10:32:37.769Z,4.37
2017-10-31T10:35:14.298Z,4.60
2017-10-31T10:37:42.689Z,3.57
2017-10-31T10:40:14.785Z,4.60
2017-10-31T10:42:43.235Z,5.60
2017-10-31T10:45:12.951Z,7.20
2017-10-31T10:47:41.354Z,3.70
2017-10-31T10:50:09.634Z,4.30
2017-10-31T10:52:42.592Z,3.70
2017-10-31T10:55:10.695Z,2.90
2017-10-31T10:57:38.934Z,5.20
2017-10-31T11:00:07.795Z,3.83
2017-10-31T11:02:35.912Z,4.27
2017-10-31T11:05:04.720Z,6.47
2017-10-31T11:07:34.869Z,4.10
2017-10-31T11:10:03.044Z,3.37
2017-10-31T11:12:31.171Z,6.40
2017-10-31T11:14:59.295Z,6.50
2017-10-31T11:17:28.350Z,4.37
2017-10-31T11:19:57.481Z,4.30
2017-10-31T11:22:26.428Z,4.20
2017-10-31T11:24:54.555Z,5.03
2017-10-31T11:27:22.700Z,3.20
2017-10-31T11:29:50.996Z,6.00
2017-10-31T11:32:19.135Z,4.80
2017-10-31T11:34:47.278Z,3.93
2017-10-31T11:37:15.372Z,5.80
2017-10-31T11:39:43.781Z,5.70
2017-10-31T11:42:12.860Z,4.20
2017-10-31T11:44:41.089Z,3.33
2017-10-31T11:47:09.193Z,5.73
2017-10-31T11:49:37.386Z,5.23
2017-10-31T11:52:05.508Z,13.40
2017-10-31T11:54:33.641Z,5.77
2017-10-31T11:57:01.776Z,6.37
2017-10-31T11:59:30.680Z,12.63
2017-10-31T12:01:58.855Z,5.43
2017-10-31T12:04:27.855Z,8.07
2017-10-31T12:06:57.089Z,4.43
2017-10-31T12:09:25.235Z,4.67
2017-10-31T12:11:54.181Z,8.47
2017-10-31T12:14:22.303Z,5.97
2017-10-31T12:16:56.223Z,8.50
2017-10-31T12:19:24.354Z,5.80
2017-10-31T12:22:05.028Z,4.53
2017-10-31T12:24:33.148Z,9.30
2017-10-31T12:27:01.294Z,7.47
2017-10-31T12:29:31.473Z,5.30
2017-10-31T12:32:00.363Z,7.03
2017-10-31T12:34:28.599Z,7.73
2017-10-31T12:36:56.975Z,6.10
2017-10-31T12:39:25.407Z,6.70
2017-10-31T12:41:55.430Z,6.40
2017-10-31T12:44:23.905Z,7.97
2017-10-31T12:46:53.468Z,7.10
2017-10-31T12:49:21.982Z,4.37
2017-10-31T12:51:51.184Z,3.23
2017-10-31T12:54:19.309Z,5.43
2017-10-31T12:56:47.424Z,4.00
2017-10-31T12:59:16.342Z,6.80
2017-10-31T13:01:45.243Z,7.80
2017-10-31T13:04:13.453Z,5.57
2017-10-31T13:06:42.206Z,5.10
2017-10-31T13:09:10.412Z,3.60
2017-10-31T13:11:40.845Z,4.70
2017-10-31T13:14:09.929Z,5.57
2017-10-31T13:16:38.054Z,4.40
2017-10-31T13:19:06.215Z,5.77
2017-10-31T13:21:34.426Z,5.90
2017-10-31T13:24:03.110Z,5.53
2017-10-31T13:26:31.509Z,5.17
2017-10-31T13:28:59.941Z,4.20
2017-10-31T13:31:31.882Z,4.23
2017-10-31T13:34:01.102Z,4.20
2017-10-31T13:36:29.610Z,5.30
2017-10-31T13:38:57.932Z,7.73
2017-10-31T13:41:27.287Z,6.87
2017-10-31T13:43:59.492Z,5.33
2017-10-31T13:46:29.067Z,9.40
2017-10-31T13:48:58.022Z,7.03
2017-10-31T13:51:28.477Z,5.20
2017-10-31T13:53:56.582Z,3.47
2017-10-31T13:56:24.724Z,8.07
2017-10-31T13:58:54.847Z,7.97
2017-10-31T14:01:23.046Z,8.90
2017-10-31T14:03:51.372Z,4.30
2017-10-31T14:06:19.778Z,7.10
2017-10-31T14:08:49.044Z,3.70
2017-10-31T14:11:17.393Z,6.13
2017-10-31T14:13:45.503Z,5.00
2017-10-31T14:16:19.920Z,4.07
2017-10-31T14:18:48.123Z,4.90
2017-10-31T14:21:17.180Z,4.10
2017-10-31T14:23:45.356Z,8.13
2017-10-31T14:26:13.467Z,3.73
2017-10-31T14:28:42.357Z,4.20
2017-10-31T14:31:11.274Z,10.00
2017-10-31T14:33:40.419Z,4.00
2017-10-31T14:36:08.541Z,6.80
2017-10-31T14:38:36.663Z,7.37
2017-10-31T14:41:05.794Z,6.60
2017-10-31T14:43:35.036Z,4.70
2017-10-31T14:46:03.164Z,6.00
2017-10-31T14:48:31.250Z,7.20
2017-10-31T14:50:59.389Z,5.70
2017-10-31T14:53:27.494Z,5.53
2017-10-31T14:55:56.653Z,6.03
2017-10-31T14:58:25.858Z,4.03
2017-10-31T15:00:53.971Z,4.10
2017-10-31T15:03:26.530Z,7.53
2017-10-31T15:05:54.695Z,5.93
2017-10-31T15:08:22.790Z,8.60
2017-10-31T15:10:50.872Z,5.97
2017-10-31T15:13:19.073Z,5.63
2017-10-31T15:15:47.138Z,5.63
2017-10-31T15:18:15.365Z,5.27
2017-10-31T15:20:43.586Z,5.77
2017-10-31T15:23:15.982Z,4.20
2017-10-31T15:25:44.060Z,5.87
2017-10-31T15:28:12.164Z,8.70
2017-10-31T15:30:41.026Z,5.50
2017-10-31T15:33:09.180Z,9.30
2017-10-31T15:35:37.310Z,8.47
2017-10-31T15:38:10.979Z,5.43
2017-10-31T15:40:39.084Z,7.37
2017-10-31T15:43:07.378Z,6.60
2017-10-31T15:45:35.541Z,9.90
2017-10-31T15:48:05.704Z,6.57
2017-10-31T15:50:33.831Z,5.87
2017-10-31T15:53:01.974Z,6.67
2017-10-31T15:55:30.860Z,8.13
2017-10-31T15:57:59.003Z,8.10
2017-10-31T16:00:29.399Z,6.07
2017-10-31T16:02:59.542Z,6.10
2017-10-31T16:05:29.634Z,6.80
2017-10-31T16:07:57.871Z,6.23
2017-10-31T16:10:26.004Z,10.03
2017-10-31T16:12:54.174Z,8.53
2017-10-31T16:15:29.055Z,7.90
2017-10-31T16:17:57.180Z,8.70
2017-10-31T16:20:25.313Z,8.87
2017-10-31T16:22:53.415Z,11.67
2017-10-31T16:25:22.024Z,7.53
2017-10-31T16:27:50.260Z,7.83
2017-10-31T16:30:18.367Z,11.83
2017-10-31T16:32:49.772Z,9.67
2017-10-31T16:35:18.921Z,7.73
2017-10-31T16:37:47.830Z,9.07
2017-10-31T16:40:17.589Z,9.63
2017-10-31T16:42:45.700Z,14.10
2017-10-31T16:45:13.883Z,10.10
2017-10-31T16:47:42.784Z,10.33
2017-10-31T16:50:11.690Z,11.27
2017-10-31T16:52:39.887Z,12.27
2017-10-31T16:55:08.062Z,11.10
2017-10-31T16:57:36.265Z,10.30
2017-10-31T17:00:05.758Z,14.53
2017-10-31T17:02:34.220Z,11.83
2017-10-31T17:05:02.937Z,11.53
2017-10-31T17:07:31.021Z,12.23
2017-10-31T17:10:04.785Z,14.40
2017-10-31T17:12:32.910Z,12.53
2017-10-31T17:15:02.613Z,13.70
2017-10-31T17:17:31.019Z,13.47
2017-10-31T17:19:59.351Z,13.33
2017-10-31T17:22:46.492Z,12.53
2017-10-31T17:25:15.456Z,12.87
2017-10-31T17:27:49.017Z,16.40
2017-10-31T17:30:17.181Z,16.33
2017-10-31T17:32:45.901Z,14.60
2017-10-31T17:35:14.053Z,13.57
2017-10-31T17:37:42.205Z,13.20
2017-10-31T17:40:11.315Z,13.20
2017-10-31T17:42:39.570Z,14.10
2017-10-31T17:45:08.535Z,12.97
2017-10-31T17:47:36.642Z,13.97
2017-10-31T17:50:04.847Z,16.50
2017-10-31T17:52:34.328Z,13.67
2017-10-31T17:55:03.391Z,12.70
2017-10-31T18:03:49.650Z,16.77
2017-10-31T18:06:17.886Z,13.07
2017-10-31T18:08:47.411Z,15.63
2017-10-31T18:11:15.752Z,13.80
2017-10-31T18:13:44.006Z,15.13
2017-10-31T18:16:12.397Z,15.30
2017-10-31T18:18:40.625Z,14.23
2017-10-31T18:21:08.799Z,14.47
2017-10-31T18:23:37.809Z,14.30
2017-10-31T18:26:10.128Z,14.57
2017-10-31T18:28:38.326Z,15.73
2017-10-31T18:31:09.385Z,16.53
2017-10-31T18:33:38.186Z,17.73
2017-10-31T18:36:08.261Z,15.63
2017-10-31T18:38:37.186Z,17.07
2017-10-31T18:41:05.384Z,16.80
2017-10-31T18:43:34.200Z,16.63
2017-10-31T18:46:02.321Z,18.27
2017-10-31T18:48:31.470Z,17.90
2017-10-31T18:51:01.567Z,18.17
2017-10-31T18:53:30.386Z,18.80
2017-10-31T18:56:00.216Z,20.20
2017-10-31T18:58:33.717Z,20.23
2017-10-31T19:36:05.973Z,25.17
2017-10-31T19:38:34.231Z,23.93
2017-10-31T19:41:02.360Z,26.37
2017-10-31T19:43:39.140Z,26.50
2017-10-31T19:46:18.599Z,24.13
2017-10-31T19:51:46.291Z,27.33
2017-10-31T19:54:15.477Z,26.80
2017-10-31T19:56:44.400Z,29.50
2017-10-31T19:59:12.966Z,29.30
2017-10-31T20:01:41.958Z,28.67
2017-10-31T20:04:10.232Z,28.27
2017-10-31T20:06:39.294Z,30.90
2017-10-31T20:09:09.440Z,28.23
2017-10-31T20:11:37.726Z,39.28
2017-10-31T20:14:13.094Z,32.33
2017-10-31T20:16:41.286Z,32.33
2017-10-31T20:19:10.233Z,31.67
2017-10-31T20:21:38.344Z,28.97
2017-10-31T20:24:06.559Z,34.83
2017-10-31T20:26:48.652Z,32.63
2017-10-31T20:29:16.826Z,31.90
2017-10-31T20:31:46.141Z,29.40
2017-10-31T20:34:14.342Z,31.63
2017-10-31T20:36:42.512Z,34.57
2017-10-31T20:39:10.706Z,31.63
2017-10-31T20:41:39.774Z,34.50
2017-10-31T20:44:20.044Z,31.37
2017-10-31T20:46:48.249Z,34.63
2017-10-31T20:49:16.460Z,37.27
2017-10-31T20:51:50.991Z,36.10
2017-10-31T20:54:19.184Z,33.87
2017-10-31T20:56:47.325Z,35.80
2017-10-31T20:59:15.494Z,35.20
2017-10-31T21:01:43.613Z,35.90
2017-10-31T21:04:11.763Z,35.30
2017-10-31T21:06:47.430Z,34.67
2017-10-31T21:09:15.639Z,40.30
2017-10-31T21:11:48.057Z,38.33
2017-10-31T21:14:18.927Z,38.93
2017-10-31T21:16:49.357Z,38.23
2017-10-31T21:19:17.512Z,38.63
2017-10-31T21:21:50.163Z,37.70
2017-10-31T21:24:21.433Z,33.53
2017-10-31T21:26:49.664Z,34.23
2017-10-31T21:29:33.501Z,31.73
2017-10-31T21:32:12.923Z,33.67
2017-10-31T21:34:42.283Z,31.80
2017-10-31T21:37:10.497Z,31.37
2017-10-31T21:39:38.853Z,31.13
2017-10-31T21:42:09.915Z,32.33
2017-10-31T21:44:41.160Z,31.47
2017-10-31T21:47:11.522Z,33.10
2017-10-31T21:49:42.068Z,31.87
2017-10-31T21:52:11.360Z,31.63
2017-10-31T21:54:39.649Z,32.17
2017-10-31T21:57:09.681Z,31.70
2017-10-31T21:59:40.639Z,31.87
2017-10-31T22:02:09.498Z,31.70
2017-10-31T22:04:38.485Z,31.40
2017-10-31T22:07:08.027Z,34.97
2017-10-31T22:09:37.008Z,31.80
2017-10-31T22:12:05.158Z,28.70
2017-10-31T22:14:34.438Z,31.30
2017-10-31T22:17:03.571Z,31.47
2017-10-31T22:19:31.761Z,32.83
2017-10-31T22:22:01.764Z,30.33
2017-10-31T22:24:30.083Z,31.33
2017-10-31T22:26:59.056Z,31.70
2017-10-31T22:29:30.716Z,32.67
2017-10-31T22:32:00.839Z,32.10
2017-10-31T22:34:29.305Z,31.70
2017-10-31T22:37:03.353Z,31.93
2017-10-31T22:39:31.576Z,31.50
2017-10-31T22:41:59.728Z,32.03
2017-10-31T22:44:27.980Z,30.90
2017-10-31T22:46:58.237Z,32.93
2017-10-31T22:49:26.462Z,29.93
2017-10-31T22:51:54.657Z,31.03
2017-10-31T22:54:23.616Z,32.57
2017-10-31T22:56:54.244Z,28.93
2017-10-31T23:02:08.305Z,41.13
2017-10-31T23:04:36.486Z,29.13
2017-10-31T23:07:04.674Z,29.23
2017-10-31T23:09:41.834Z,27.87
2017-10-31T23:12:12.449Z,26.60
2017-10-31T23:14:41.849Z,27.03
2017-10-31T23:17:09.992Z,28.10
2017-10-31T23:22:13.688Z,27.97
2017-10-31T23:24:41.860Z,27.43
2017-10-31T23:27:10.849Z,24.37
2017-10-31T23:29:39.044Z,25.80
2017-10-31T23:32:07.257Z,24.17
2017-10-31T23:34:35.457Z,26.20
2017-10-31T23:37:03.627Z,24.13
2017-10-31T23:39:31.801Z,26.13
2017-10-31T23:42:00.588Z,23.77
2017-10-31T23:44:29.990Z,25.07
2017-10-31T23:46:58.250Z,23.30
2017-10-31T23:49:26.415Z,25.60
2017-10-31T23:51:54.556Z,23.20
2017-10-31T23:54:23.435Z,23.37
2017-10-31T23:56:51.568Z,25.30
2017-10-31T23:59:19.710Z,24.90
